Station Historical Data
Daily Summary for October 22, 2017 Units:  Metric    English   Both
« Previous Day
Next Day »
Daily Weekly Monthly Yearly Custom
  High: Low: Average:
Temperature: 26.6 °C 8.4 °C 17 °C
Dew Point: 13.1 °C 5.8 °C 9.8 °C
Humidity: 86% 37% 65%
Wind Speed: 12.9km/h 0km/h 1.3km/h
Wind Gust: 16.1km/h - -
Wind- - SSW
Pressure: 1025.6 hPa 1019.5 hPa -
Precipitation: 0 mm    
Historical Graphs
 
 
Tabular Data for October 22, 2017
Time Temperature Dew Point Pressure Wind Wind Speed Wind Gust Humidity Rainfall Rate (Hourly)
00:04 11.3 °C 7.8 °C 1023.6 hPa Calm     79% 0 mm
00:09 11.1 °C 7.6 °C 1023.6 hPa Calm     79% 0 mm
00:14 10.9 °C 7.6 °C 1023.6 hPa Calm     80% 0 mm
00:19 10.9 °C 7.6 °C 1023.6 hPa Calm     80% 0 mm
00:24 10.8 °C 7.7 °C 1023.6 hPa Calm     81% 0 mm
00:29 10.8 °C 7.7 °C 1023.6 hPa Calm     81% 0 mm
00:34 10.8 °C 7.9 °C 1023.6 hPa Calm     82% 0 mm
00:39 10.8 °C 7.9 °C 1023.6 hPa Calm     82% 0 mm
00:44 11 °C 7.9 °C 1023.6 hPa Calm     81% 0 mm
00:49 11.1 °C 7.9 °C 1023.6 hPa Calm     81% 0 mm
00:54 11.1 °C 7.9 °C 1023.9 hPa Calm     81% 0 mm
00:59 11.1 °C 7.9 °C 1023.6 hPa Calm     81% 0 mm
01:04 10.9 °C 7.8 °C 1023.6 hPa Calm     81% 0 mm
01:09 11 °C 7.9 °C 1023.6 hPa Calm     81% 0 mm
01:14 10.9 °C 7.8 °C 1023.9 hPa Calm     81% 0 mm
01:19 11.1 °C 7.9 °C 1023.9 hPa Calm     81% 0 mm
01:24 11 °C 7.9 °C 1023.6 hPa Calm     81% 0 mm
01:29 10.8 °C 7.7 °C 1023.6 hPa Calm     81% 0 mm
01:34 10.7 °C 7.6 °C 1023.6 hPa Calm     81% 0 mm
01:39 10.7 °C 7.7 °C 1023.6 hPa Calm     82% 0 mm
01:44 10.7 °C 7.6 °C 1023.6 hPa Calm     81% 0 mm
01:49 10.7 °C 7.6 °C 1023.6 hPa Calm     81% 0 mm
01:54 10.4 °C 7.3 °C 1023.6 hPa Calm     81% 0 mm
01:59 10.3 °C 7.3 °C 1023.6 hPa Calm     82% 0 mm
02:04 10.3 °C 7.3 °C 1023.6 hPa Calm     82% 0 mm
02:09 10.2 °C 7.3 °C 1023.6 hPa Calm     82% 0 mm
02:14 10.2 °C 7.3 °C 1023.6 hPa Calm     82% 0 mm
02:19 10.3 °C 7.2 °C 1023.9 hPa Calm     81% 0 mm
02:24 10.1 °C 7 °C 1023.6 hPa Calm     81% 0 mm
02:29 9.9 °C 6.8 °C 1023.9 hPa Calm     81% 0 mm
02:34 9.9 °C 6.9 °C 1023.9 hPa Calm     82% 0 mm
02:39 9.8 °C 6.8 °C 1023.9 hPa Calm     82% 0 mm
02:44 9.7 °C 6.8 °C 1023.9 hPa Calm     82% 0 mm
02:49 9.7 °C 6.9 °C 1023.9 hPa Calm     83% 0 mm
02:54 9.7 °C 6.9 °C 1024.3 hPa Calm     83% 0 mm
02:59 9.6 °C 6.8 °C 1024.3 hPa Calm     83% 0 mm
03:04 9.4 °C 6.9 °C 1023.9 hPa Calm     84% 0 mm
03:09 9.4 °C 6.8 °C 1023.9 hPa Calm     84% 0 mm
03:14 9.4 °C 6.8 °C 1023.9 hPa Calm     84% 0 mm
03:19 9.3 °C 6.8 °C 1023.9 hPa Calm     84% 0 mm
03:24 9.3 °C 6.7 °C 1023.9 hPa Calm     84% 0 mm
03:29 9.2 °C 6.6 °C 1024.3 hPa Calm     84% 0 mm
03:34 9.3 °C 6.6 °C 1024.3 hPa Calm     83% 0 mm
03:39 9.3 °C 6.6 °C 1024.3 hPa Calm     83% 0 mm
03:44 9.3 °C 6.4 °C 1024.3 hPa Calm     82% 0 mm
03:49 9.4 °C 6.5 °C 1024.3 hPa Calm     82% 0 mm
03:54 9.5 °C 6.6 °C 1024.3 hPa Calm     82% 0 mm
03:59 9.4 °C 6.5 °C 1024.3 hPa Calm     82% 0 mm
04:04 9.4 °C 6.3 °C 1024.3 hPa Calm     81% 0 mm
04:09 9.3 °C 6.4 °C 1024.3 hPa Calm     82% 0 mm
04:14 9.2 °C 6.3 °C 1024.3 hPa Calm     82% 0 mm
04:19 9.1 °C 6.2 °C 1024.3 hPa Calm     82% 0 mm
04:24 9 °C 6.1 °C 1024.3 hPa Calm     82% 0 mm
04:29 8.9 °C 6.2 °C 1024.6 hPa Calm     83% 0 mm
04:34 8.9 °C 6.2 °C 1024.6 hPa Calm     83% 0 mm
04:39 8.8 °C 6.1 °C 1024.6 hPa Calm     83% 0 mm
04:44 8.8 °C 6.1 °C 1024.6 hPa Calm     83% 0 mm
04:49 8.8 °C 6.2 °C 1024.6 hPa Calm     84% 0 mm
04:54 8.8 °C 6.2 °C 1024.9 hPa Calm     84% 0 mm
04:59 8.8 °C 6.2 °C 1024.9 hPa Calm     84% 0 mm
05:04 9 °C 6.3 °C 1024.9 hPa Calm     83% 0 mm
05:09 9 °C 6.3 °C 1024.9 hPa Calm     83% 0 mm
05:14 8.9 °C 6.2 °C 1024.9 hPa Calm     83% 0 mm
05:19 8.9 °C 6.2 °C 1024.9 hPa Calm     83% 0 mm
05:24 9.2 °C 6.4 °C 1024.9 hPa Calm     83% 0 mm
05:29 9.2 °C 6.3 °C 1024.9 hPa Calm     82% 0 mm
05:34 9.2 °C 6.3 °C 1025.3 hPa Calm     82% 0 mm
05:39 9.1 °C 6.2 °C 1024.9 hPa Calm     82% 0 mm
05:44 9.3 °C 6.6 °C 1025.3 hPa Calm     83% 0 mm
05:49 9.6 °C 6.7 °C 1025.3 hPa Calm     82% 0 mm
05:54 9.5 °C 6.4 °C 1025.3 hPa Calm     81% 0 mm
05:59 9.2 °C 6.1 °C 1025.3 hPa Calm     81% 0 mm
06:04 9.1 °C 6.2 °C 1025.3 hPa Calm     82% 0 mm
06:09 8.8 °C 6.1 °C 1025.3 hPa Calm     83% 0 mm
06:14 8.7 °C 6.1 °C 1025.3 hPa Calm     84% 0 mm
06:19 8.6 °C 5.9 °C 1025.6 hPa Calm     83% 0 mm
06:24 8.5 °C 5.9 °C 1025.3 hPa Calm     84% 0 mm
06:29 8.4 °C 5.8 °C 1025.3 hPa Calm     84% 0 mm
06:34 8.4 °C 6 °C 1025.3 hPa Calm     85% 0 mm
06:39 8.4 °C 6.1 °C 1025.3 hPa Calm     85% 0 mm
06:44 8.4 °C 6.1 °C 1025.3 hPa Calm     85% 0 mm
06:49 8.4 °C 6.1 °C 1025.3 hPa Calm     85% 0 mm
06:54 8.4 °C 6.1 °C 1025.3 hPa Calm     85% 0 mm
06:59 8.4 °C 6.1 °C 1025.3 hPa Calm     85% 0 mm
07:04 8.4 °C 6 °C 1025.3 hPa Calm     85% 0 mm
07:09 8.8 °C 6.6 °C 1025.3 hPa Calm     86% 0 mm
07:14 8.7 °C 6.1 °C 1025.3 hPa Calm     84% 0 mm
07:19 8.6 °C 6.2 °C 1025.3 hPa Calm     85% 0 mm
07:24 8.7 °C 6.3 °C 1025.3 hPa Calm     85% 0 mm
07:29 8.9 °C 6.5 °C 1025.3 hPa Calm     85% 0 mm
07:34 8.9 °C 6.5 °C 1025.3 hPa Calm     85% 0 mm
07:39 8.9 °C 6.6 °C 1025.3 hPa Calm     85% 0 mm
07:44 8.9 °C 6.3 °C 1024.9 hPa Calm     84% 0 mm
07:49 8.8 °C 6.2 °C 1024.9 hPa Calm     84% 0 mm
07:54 8.7 °C 6.1 °C 1024.9 hPa Calm     84% 0 mm
07:59 8.8 °C 6.2 °C 1024.9 hPa Calm     84% 0 mm
08:04 8.9 °C 6.5 °C 1024.9 hPa Calm     85% 0 mm
08:09 9 °C 6.4 °C 1024.9 hPa Calm     84% 0 mm
08:14 9 °C 6.4 °C 1024.9 hPa Calm     84% 0 mm
08:19 9.2 °C 6.6 °C 1024.9 hPa Calm     84% 0 mm
08:24 9.7 °C 7.2 °C 1024.9 hPa Calm     84% 0 mm
08:29 10.3 °C 7.3 °C 1024.9 hPa Calm     82% 0 mm
08:34 10.6 °C 7.4 °C 1024.9 hPa Calm     81% 0 mm
08:39 11.1 °C 7.7 °C 1024.9 hPa Calm     80% 0 mm
08:49 11.8 °C 8.1 °C 1025.3 hPa Calm   4.8 km/h 78% 0 mm
08:54 12.2 °C 8.3 °C 1024.9 hPa SE 1.6 km/h 4.8 km/h 77% 0 mm
08:59 12.9 °C 8.6 °C 1025.3 hPa SE 1.6 km/h 4.8 km/h 75% 0 mm
09:04 13.4 °C 8.8 °C 1025.3 hPa Calm   4.8 km/h 74% 0 mm
09:09 13.9 °C 8.9 °C 1025.3 hPa SSE 3.2 km/h 4.8 km/h 72% 0 mm
09:14 14.3 °C 9.1 °C 1024.9 hPa SSE 3.2 km/h 4.8 km/h 71% 0 mm
09:19 14.6 °C 9.2 °C 1024.9 hPa SSE 1.6 km/h 4.8 km/h 70% 0 mm
09:24 14.9 °C 9.3 °C 1024.9 hPa Calm   6.4 km/h 69% 0 mm
09:29 15.4 °C 9.8 °C 1024.9 hPa SSE 1.6 km/h 4.8 km/h 69% 0 mm
09:34 15.8 °C 9.9 °C 1024.9 hPa SE 3.2 km/h 6.4 km/h 68% 0 mm
09:39 16.2 °C 10.1 °C 1024.6 hPa Calm   4.8 km/h 67% 0 mm
09:44 16.6 °C 10.2 °C 1024.9 hPa SSE 1.6 km/h 4.8 km/h 66% 0 mm
09:49 16.9 °C 10.5 °C 1024.9 hPa SSE 1.6 km/h 6.4 km/h 66% 0 mm
09:54 17.3 °C 10.6 °C 1024.6 hPa SSE 3.2 km/h 8 km/h 65% 0 mm
09:59 17.6 °C 10.9 °C 1024.6 hPa SSE 3.2 km/h 8 km/h 65% 0 mm
10:04 18.1 °C 10.9 °C 1024.6 hPa SSE 1.6 km/h 1.6 km/h 63% 0 mm
10:09 18.3 °C 10.9 °C 1024.6 hPa SW 4.8 km/h 8 km/h 62% 0 mm
10:14 18.7 °C 11.5 °C 1024.6 hPa SSW 1.6 km/h 4.8 km/h 63% 0 mm
10:19 18.9 °C 11.3 °C 1024.6 hPa SSW 1.6 km/h 4.8 km/h 61% 0 mm
10:24 19.2 °C 11.5 °C 1024.6 hPa South 1.6 km/h 8 km/h 61% 0 mm
10:29 19.6 °C 11.3 °C 1024.6 hPa South 3.2 km/h 9.7 km/h 59% 0 mm
10:34 19.7 °C 11.5 °C 1024.6 hPa SE 3.2 km/h 6.4 km/h 59% 0 mm
10:39 20 °C 12 °C 1024.6 hPa SSW 3.2 km/h 9.7 km/h 60% 0 mm
10:44 20.2 °C 11.9 °C 1024.6 hPa SSW 4.8 km/h 8 km/h 59% 0 mm
10:49 20.3 °C 11.8 °C 1024.3 hPa SSW 3.2 km/h 8 km/h 58% 0 mm
10:54 20.5 °C 11.9 °C 1024.3 hPa SSW 1.6 km/h 8 km/h 58% 0 mm
10:59 20.6 °C 12 °C 1024.3 hPa SSW 1.6 km/h 4.8 km/h 58% 0 mm
11:04 20.6 °C 12.3 °C 1024.3 hPa SSW 3.2 km/h 8 km/h 59% 0 mm
11:09 20.8 °C 11.7 °C 1024.3 hPa SSW 3.2 km/h 6.4 km/h 56% 0 mm
11:14 21.1 °C 12 °C 1024.3 hPa SW 1.6 km/h 8 km/h 56% 0 mm
11:19 21.4 °C 12.3 °C 1024.3 hPa Calm   6.4 km/h 56% 0 mm
11:24 21.4 °C 12 °C 1024.3 hPa SW 3.2 km/h 8 km/h 55% 0 mm
11:29 21.5 °C 11.8 °C 1024.3 hPa SW 4.8 km/h 11.3 km/h 54% 0 mm
11:34 21.9 °C 11.9 °C 1024.3 hPa SSW 4.8 km/h 11.3 km/h 53% 0 mm
11:39 22.2 °C 12.4 °C 1024.3 hPa SSW 3.2 km/h 11.3 km/h 54% 0 mm
11:44 22.2 °C 12.1 °C 1024.3 hPa SSW 3.2 km/h 9.7 km/h 53% 0 mm
11:49 22.2 °C 12.2 °C 1024.3 hPa Calm   9.7 km/h 53% 0 mm
11:54 22.2 °C 11.8 °C 1024.3 hPa SW 6.4 km/h 8 km/h 52% 0 mm
11:59 22.3 °C 11.9 °C 1024.3 hPa SW 3.2 km/h 9.7 km/h 52% 0 mm
12:04 22.7 °C 12.6 °C 1024.3 hPa SW 3.2 km/h 9.7 km/h 53% 0 mm
12:09 23.1 °C 12.9 °C 1024.3 hPa SSW 1.6 km/h 8 km/h 53% 0 mm
12:14 23.2 °C 12.4 °C 1024.3 hPa SW 3.2 km/h 8 km/h 51% 0 mm
12:19 23.3 °C 12.9 °C 1024.3 hPa SW 1.6 km/h 6.4 km/h 52% 0 mm
12:24 23.2 °C 13.1 °C 1024.3 hPa SSW 3.2 km/h 4.8 km/h 53% 0 mm
12:29 23.3 °C 12.3 °C 1024.3 hPa SSW 1.6 km/h 6.4 km/h 50% 0 mm
12:34 23.6 °C 11.9 °C 1023.9 hPa SW 3.2 km/h 6.4 km/h 48% 0 mm
12:39 23.9 °C 12.8 °C 1023.9 hPa WSW 1.6 km/h 8 km/h 50% 0 mm
12:44 24.3 °C 12.6 °C 1023.9 hPa SW 3.2 km/h 8 km/h 48% 0 mm
12:49 24.4 °C 11.7 °C 1023.6 hPa South 4.8 km/h 9.7 km/h 45% 0 mm
12:54 24.4 °C 12 °C 1023.6 hPa WSW 3.2 km/h 11.3 km/h 46% 0 mm
12:59 24.4 °C 13.1 °C 1023.6 hPa WSW 1.6 km/h 6.4 km/h 49% 0 mm
13:04 24.6 °C 12.2 °C 1023.6 hPa SW 3.2 km/h 8 km/h 46% 0 mm
13:09 24.8 °C 11.7 °C 1023.6 hPa SW 3.2 km/h 8 km/h 44% 0 mm
13:14 24.5 °C 10.7 °C 1023.6 hPa SSW 3.2 km/h 9.7 km/h 42% 0 mm
13:19 24.7 °C 10.6 °C 1023.2 hPa South 3.2 km/h 9.7 km/h 41% 0 mm
13:24 24.8 °C 11.4 °C 1023.2 hPa SW 3.2 km/h 8 km/h 43% 0 mm
13:29 24.8 °C 11.1 °C 1023.2 hPa SW 6.4 km/h 8 km/h 42% 0 mm
13:34 25 °C 10.8 °C 1023.2 hPa SSW 1.6 km/h 9.7 km/h 41% 0 mm
13:39 25.1 °C 10.5 °C 1023.2 hPa SSW 4.8 km/h 9.7 km/h 40% 0 mm
13:44 25 °C 11.2 °C 1022.9 hPa SW 4.8 km/h 11.3 km/h 42% 0 mm
13:49 25.1 °C 11.3 °C 1022.9 hPa SW 4.8 km/h 11.3 km/h 42% 0 mm
13:54 25 °C 11.9 °C 1022.9 hPa SW 3.2 km/h 9.7 km/h 44% 0 mm
13:59 25 °C 12.2 °C 1022.9 hPa South 1.6 km/h 9.7 km/h 45% 0 mm
14:04 25.1 °C 11.2 °C 1022.9 hPa SW 1.6 km/h 8 km/h 42% 0 mm
14:09 25 °C 10.8 °C 1022.6 hPa SW 1.6 km/h 11.3 km/h 41% 0 mm
14:14 24.6 °C 11.2 °C 1022.6 hPa SSW 4.8 km/h 11.3 km/h 43% 0 mm
14:19 24.7 °C 12 °C 1022.6 hPa SSW 3.2 km/h 8 km/h 45% 0 mm
14:24 25.2 °C 12.4 °C 1022.6 hPa SW 1.6 km/h 9.7 km/h 45% 0 mm
14:29 25.3 °C 11.1 °C 1022.2 hPa SSW 1.6 km/h 6.4 km/h 41% 0 mm
14:34 25.3 °C 11.1 °C 1022.2 hPa South 3.2 km/h 6.4 km/h 41% 0 mm
14:39 25.6 °C 11.3 °C 1022.2 hPa WSW 1.6 km/h 6.4 km/h 41% 0 mm
14:44 25.9 °C 11.7 °C 1021.9 hPa SW 3.2 km/h 6.4 km/h 41% 0 mm
14:49 25.8 °C 11.5 °C 1021.9 hPa SW 3.2 km/h 8 km/h 41% 0 mm
14:54 25.7 °C 12.5 °C 1021.9 hPa WSW 3.2 km/h 8 km/h 44% 0 mm
14:59 25.8 °C 11.6 °C 1021.9 hPa West 3.2 km/h 6.4 km/h 41% 0 mm
15:04 25.9 °C 11.6 °C 1021.6 hPa West 1.6 km/h 6.4 km/h 41% 0 mm
15:09 26.2 °C 13 °C 1021.6 hPa Calm   6.4 km/h 44% 0 mm
15:14 25.7 °C 11.8 °C 1021.6 hPa South 4.8 km/h 4.8 km/h 42% 0 mm
15:19 25.4 °C 11.2 °C 1021.6 hPa South 3.2 km/h 11.3 km/h 41% 0 mm
15:24 25.2 °C 11.7 °C 1021.6 hPa South 3.2 km/h 6.4 km/h 43% 0 mm
15:29 25.2 °C 11.1 °C 1021.6 hPa SSE 1.6 km/h 8 km/h 41% 0 mm
15:34 25.2 °C 11.1 °C 1021.6 hPa SSE 1.6 km/h 12.9 km/h 41% 0 mm
15:39 25.3 °C 11.4 °C 1021.6 hPa South 1.6 km/h 9.7 km/h 42% 0 mm
15:44 25.7 °C 12.2 °C 1021.2 hPa SSW 3.2 km/h 9.7 km/h 43% 0 mm
15:49 26.3 °C 10.8 °C 1021.2 hPa SSE 3.2 km/h 11.3 km/h 38% 0 mm
15:54 26.6 °C 11.4 °C 1021.2 hPa SSW 4.8 km/h 12.9 km/h 39% 0 mm
15:59 26.6 °C 11.1 °C 1021.2 hPa SSW 4.8 km/h 12.9 km/h 38% 0 mm
16:04 26.4 °C 10.9 °C 1021.2 hPa SW 6.4 km/h 16.1 km/h 38% 0 mm
16:09 26.2 °C 10.4 °C 1021.2 hPa SSW 8 km/h 16.1 km/h 37% 0 mm
16:14 26.2 °C 10.8 °C 1021.2 hPa SSW 6.4 km/h 16.1 km/h 38% 0 mm
16:19 26.1 °C 10.6 °C 1021.2 hPa SSW 4.8 km/h 14.5 km/h 38% 0 mm
16:24 25.8 °C 10.8 °C 1021.2 hPa SW 12.9 km/h 12.9 km/h 39% 0 mm
16:29 25.8 °C 11.5 °C 1020.9 hPa SSW 6.4 km/h 12.9 km/h 41% 0 mm
16:34 25.7 °C 11.1 °C 1021.2 hPa SW 4.8 km/h 12.9 km/h 40% 0 mm
16:39 25.4 °C 11.2 °C 1020.9 hPa SSW 3.2 km/h 11.3 km/h 41% 0 mm
16:44 25.3 °C 11.4 °C 1020.9 hPa SW 1.6 km/h 11.3 km/h 42% 0 mm
16:49 25.2 °C 11.7 °C 1020.9 hPa SW 8 km/h 9.7 km/h 43% 0 mm
16:54 25.2 °C 12.1 °C 1020.9 hPa Calm   8 km/h 44% 0 mm
16:59 24.9 °C 11.5 °C 1020.9 hPa South 3.2 km/h 9.7 km/h 43% 0 mm
17:04 24.9 °C 12.2 °C 1020.9 hPa SSW 1.6 km/h 8 km/h 45% 0 mm
17:09 25 °C 12.2 °C 1020.9 hPa SSW 1.6 km/h 6.4 km/h 45% 0 mm
17:14 25 °C 11.9 °C 1020.9 hPa SSW 1.6 km/h 4.8 km/h 44% 0 mm
17:19 24.8 °C 12.1 °C 1020.9 hPa Calm   6.4 km/h 45% 0 mm
17:24 24.6 °C 11.9 °C 1020.5 hPa SSW 1.6 km/h 3.2 km/h 45% 0 mm
17:29 24.4 °C 12.1 °C 1020.5 hPa SSW 1.6 km/h 1.6 km/h 46% 0 mm
17:34 24.3 °C 11.9 °C 1020.5 hPa Calm   3.2 km/h 46% 0 mm
17:39 24.1 °C 12.1 °C 1020.5 hPa Calm   3.2 km/h 47% 0 mm
17:44 23.6 °C 12.2 °C 1020.5 hPa Calm     49% 0 mm
17:49 22.9 °C 12.2 °C 1020.5 hPa Calm     51% 0 mm
17:54 22.4 °C 12.4 °C 1020.5 hPa Calm     53% 0 mm
17:59 22.1 °C 12.3 °C 1020.5 hPa Calm     54% 0 mm
18:04 22 °C 12 °C 1020.5 hPa Calm     53% 0 mm
18:09 22.1 °C 12.1 °C 1020.5 hPa Calm     53% 0 mm
18:14 22.1 °C 12.1 °C 1020.5 hPa Calm     53% 0 mm
18:19 22.1 °C 12.1 °C 1020.5 hPa Calm     53% 0 mm
18:24 21.9 °C 11.9 °C 1020.2 hPa Calm     53% 0 mm
18:29 21.8 °C 12.1 °C 1020.2 hPa Calm     54% 0 mm
18:34 21.3 °C 12.4 °C 1020.5 hPa Calm     57% 0 mm
18:44 21.1 °C 12.2 °C 1020.5 hPa Calm     57% 0 mm
18:49 20.9 °C 12.1 °C 1020.2 hPa Calm     57% 0 mm
18:54 20.8 °C 12.3 °C 1020.5 hPa Calm     58% 0 mm
18:59 20.7 °C 12.2 °C 1020.5 hPa Calm     58% 0 mm
19:04 20.6 °C 12.6 °C 1020.5 hPa Calm     60% 0 mm
19:09 20.4 °C 11.9 °C 1020.5 hPa Calm     58% 0 mm
19:14 20.8 °C 11.7 °C 1020.5 hPa Calm     56% 0 mm
19:19 20.9 °C 11.8 °C 1020.5 hPa Calm     56% 0 mm
19:24 20.8 °C 11.7 °C 1020.5 hPa Calm   3.2 km/h 56% 0 mm
19:29 20.8 °C 11.7 °C 1020.5 hPa Calm   3.2 km/h 56% 0 mm
19:34 20.7 °C 11.8 °C 1020.9 hPa Calm   3.2 km/h 57% 0 mm
19:39 20.4 °C 11.6 °C 1020.5 hPa Calm     57% 0 mm
19:44 19.9 °C 11.7 °C 1020.9 hPa Calm     59% 0 mm
19:49 19.5 °C 11.8 °C 1020.9 hPa Calm   3.2 km/h 61% 0 mm
19:54 19.2 °C 11.8 °C 1020.9 hPa Calm     62% 0 mm
20:04 18.9 °C 11.7 °C 1020.9 hPa Calm   1.6 km/h 63% 0 mm
20:09 19.1 °C 11.6 °C 1020.9 hPa SSW 1.6 km/h 1.6 km/h 62% 0 mm
20:14 19.1 °C 11.6 °C 1021.2 hPa Calm   1.6 km/h 62% 0 mm
20:19 19.1 °C 11.6 °C 1021.2 hPa Calm     62% 0 mm
20:24 18.9 °C 11.5 °C 1021.2 hPa Calm     62% 0 mm
20:29 18.7 °C 11.5 °C 1021.2 hPa Calm   4.8 km/h 63% 0 mm
20:34 18.5 °C 11.6 °C 1020.9 hPa Calm   4.8 km/h 64% 0 mm
20:39 18.3 °C 11.3 °C 1021.2 hPa Calm   3.2 km/h 64% 0 mm
20:44 18.1 °C 11.4 °C 1020.9 hPa Calm   3.2 km/h 65% 0 mm
20:49 17.9 °C 11.3 °C 1020.9 hPa Calm   3.2 km/h 65% 0 mm
20:54 17.8 °C 11.2 °C 1020.9 hPa Calm   3.2 km/h 65% 0 mm
20:59 17.9 °C 11.2 °C 1020.9 hPa Calm   3.2 km/h 65% 0 mm
21:04 18 °C 11.1 °C 1021.2 hPa Calm   8 km/h 64% 0 mm
21:09 18.1 °C 10.9 °C 1021.2 hPa SSW 1.6 km/h 8 km/h 63% 0 mm
21:14 18.2 °C 11.1 °C 1020.9 hPa South 1.6 km/h 8 km/h 63% 0 mm
21:19 18.3 °C 10.9 °C 1020.9 hPa South 1.6 km/h 6.4 km/h 62% 0 mm
21:24 18.4 °C 11 °C 1020.9 hPa SSE 1.6 km/h 6.4 km/h 62% 0 mm
21:29 18.6 °C 11.1 °C 1020.9 hPa SSE 4.8 km/h 8 km/h 62% 0 mm
21:34 18.7 °C 11.2 °C 1020.9 hPa SSE 1.6 km/h 8 km/h 62% 0 mm
21:39 18.8 °C 11.3 °C 1020.9 hPa SSE 1.6 km/h 8 km/h 62% 0 mm
21:44 18.8 °C 11.4 °C 1020.9 hPa SSE 4.8 km/h 6.4 km/h 62% 0 mm
21:49 18.8 °C 11.4 °C 1020.9 hPa South 1.6 km/h 9.7 km/h 62% 0 mm
21:54 18.8 °C 11.4 °C 1020.9 hPa South 3.2 km/h 6.4 km/h 62% 0 mm
21:59 18.8 °C 11.3 °C 1020.9 hPa South 3.2 km/h 6.4 km/h 62% 0 mm
22:09 18.8 °C 11.6 °C 1020.9 hPa SSE 3.2 km/h 8 km/h 63% 0 mm
22:14 18.8 °C 11.4 °C 1020.9 hPa SSE 4.8 km/h 11.3 km/h 62% 0 mm
22:19 18.8 °C 11.6 °C 1020.9 hPa SSE 4.8 km/h 11.3 km/h 63% 0 mm
22:24 18.7 °C 11.5 °C 1020.9 hPa SSE 3.2 km/h 9.7 km/h 63% 0 mm
22:29 18.7 °C 11.5 °C 1020.9 hPa Calm   9.7 km/h 63% 0 mm
22:34 18.6 °C 11.7 °C 1020.9 hPa SSE 3.2 km/h 9.7 km/h 64% 0 mm
22:39 18.6 °C 11.7 °C 1020.5 hPa SSE 3.2 km/h 9.7 km/h 64% 0 mm
22:44 18.6 °C 11.6 °C 1020.5 hPa SSE 1.6 km/h 8 km/h 64% 0 mm
22:49 18.5 °C 11.6 °C 1020.5 hPa Calm   8 km/h 64% 0 mm
22:54 18.4 °C 11.7 °C 1020.5 hPa Calm   8 km/h 65% 0 mm
22:59 18.4 °C 11.7 °C 1020.2 hPa South 1.6 km/h 8 km/h 65% 0 mm
23:04 18.4 °C 11.7 °C 1020.2 hPa SSE 3.2 km/h 8 km/h 65% 0 mm
23:09 18.4 °C 11.7 °C 1020.2 hPa SSE 3.2 km/h 9.7 km/h 65% 0 mm
23:14 18.3 °C 11.9 °C 1020.2 hPa South 1.6 km/h 9.7 km/h 66% 0 mm
23:19 18.2 °C 11.8 °C 1020.2 hPa SSE 1.6 km/h 4.8 km/h 66% 0 mm
23:24 18.1 °C 11.7 °C 1019.9 hPa SSE 1.6 km/h 6.4 km/h 66% 0 mm
23:29 17.9 °C 11.7 °C 1019.9 hPa South 1.6 km/h 6.4 km/h 67% 0 mm
23:34 17.9 °C 11.7 °C 1019.9 hPa Calm   6.4 km/h 67% 0 mm
23:39 17.8 °C 11.8 °C 1019.9 hPa Calm   6.4 km/h 68% 0 mm
23:44 17.4 °C 11.7 °C 1019.9 hPa Calm     69% 0 mm
23:49 17.3 °C 11.6 °C 1019.9 hPa Calm     69% 0 mm
23:54 17.2 °C 11.5 °C 1019.9 hPa Calm     69% 0 mm
23:59 17.1 °C 11.6 °C 1019.5 hPa Calm     70% 0 mm
Buffalo, New York, USA
Compliments of Weather Underground - 2.5 mb